createdAt,value
2023-03-19T00:01:06.815Z,73.80
2023-03-19T00:03:36.228Z,73.70
2023-03-19T00:06:04.899Z,73.70
2023-03-19T00:08:34.702Z,73.80
2023-03-19T00:11:06.765Z,73.50
2023-03-19T00:13:34.847Z,73.60
2023-03-19T00:16:04.106Z,72.90
2023-03-19T00:18:35.578Z,72.90
2023-03-19T00:21:04.464Z,73.00
2023-03-19T00:23:34.395Z,72.90
2023-03-19T00:26:05.355Z,72.90
2023-03-19T00:28:33.855Z,72.90
2023-03-19T00:31:10.061Z,73.00
2023-03-19T00:33:46.096Z,72.90
2023-03-19T00:36:16.533Z,72.80
2023-03-19T00:38:58.044Z,72.70
2023-03-19T00:41:34.479Z,73.20
2023-03-19T00:49:55.673Z,73.40
2023-03-19T00:55:56.613Z,73.40
2023-03-19T00:58:40.942Z,73.40
2023-03-19T01:01:09.322Z,73.00
2023-03-19T01:03:37.991Z,72.80
2023-03-19T01:06:12.946Z,72.70
2023-03-19T01:08:42.670Z,72.30
2023-03-19T01:11:14.277Z,72.00
2023-03-19T01:13:50.064Z,72.00
2023-03-19T01:16:20.661Z,71.90
2023-03-19T01:18:53.752Z,72.00
2023-03-19T01:21:24.541Z,72.20
2023-03-19T01:23:55.510Z,72.20
2023-03-19T01:26:31.192Z,72.40
2023-03-19T01:29:19.901Z,72.70
2023-03-19T01:31:54.084Z,72.90
2023-03-19T01:34:56.860Z,73.00
2023-03-19T01:37:25.295Z,72.80
2023-03-19T01:39:55.369Z,72.80
2023-03-19T01:42:26.684Z,72.80
2023-03-19T01:45:32.408Z,72.80
2023-03-19T01:48:23.027Z,72.90
2023-03-19T01:51:16.359Z,72.90
2023-03-19T01:53:52.056Z,72.90
2023-03-19T01:56:50.398Z,73.00
2023-03-19T01:59:28.075Z,73.00
2023-03-19T02:02:20.072Z,73.00
2023-03-19T02:04:52.935Z,73.00
2023-03-19T02:07:35.511Z,72.90
2023-03-19T02:10:07.392Z,72.70
2023-03-19T02:12:50.683Z,72.70
2023-03-19T02:15:43.372Z,72.60
2023-03-19T02:18:17.479Z,72.60
2023-03-19T02:20:51.221Z,72.40
2023-03-19T02:23:27.038Z,72.40
2023-03-19T02:26:05.167Z,72.70
2023-03-19T02:28:34.974Z,72.90
2023-03-19T02:31:03.081Z,72.80
2023-03-19T02:33:34.105Z,72.80
2023-03-19T02:36:05.860Z,72.80
2023-03-19T02:38:52.216Z,72.70
2023-03-19T02:41:22.339Z,72.80
2023-03-19T02:43:53.379Z,72.70
2023-03-19T02:46:26.293Z,72.60
2023-03-19T02:48:59.701Z,72.60
2023-03-19T02:51:27.825Z,72.60
2023-03-19T02:53:57.814Z,72.90
2023-03-19T02:56:32.383Z,73.20
2023-03-19T02:59:03.868Z,73.40
2023-03-19T03:01:34.697Z,73.50
2023-03-19T03:04:09.020Z,73.60
2023-03-19T03:06:37.460Z,73.60
2023-03-19T03:09:07.881Z,73.60
2023-03-19T03:11:42.024Z,73.50
2023-03-19T03:14:10.849Z,73.60
2023-03-19T03:16:39.606Z,73.50
2023-03-19T03:19:10.026Z,73.50
2023-03-19T03:21:40.448Z,73.50
2023-03-19T03:24:11.401Z,73.50
2023-03-19T03:26:40.998Z,73.40
2023-03-19T03:29:31.441Z,73.50
2023-03-19T03:32:03.312Z,73.30
2023-03-19T03:34:35.236Z,73.40
2023-03-19T03:39:55.372Z,73.60
2023-03-19T03:42:43.554Z,73.70
2023-03-19T03:45:19.326Z,73.80
2023-03-19T03:47:47.461Z,73.80
2023-03-19T03:50:17.088Z,73.80
2023-03-19T03:52:46.973Z,73.90
2023-03-19T03:55:16.604Z,74.00
2023-03-19T04:00:46.263Z,74.20
2023-03-19T04:03:15.100Z,74.20
2023-03-19T04:05:45.467Z,74.30
2023-03-19T04:08:14.688Z,74.20
2023-03-19T04:10:45.766Z,74.10
2023-03-19T04:13:17.972Z,74.10
2023-03-19T04:15:53.496Z,74.00
2023-03-19T04:18:45.049Z,74.00
2023-03-19T04:21:15.040Z,74.10
2023-03-19T04:23:44.331Z,74.20
2023-03-19T04:26:16.346Z,74.30
2023-03-19T04:28:44.899Z,74.30
2023-03-19T04:31:14.604Z,74.40
2023-03-19T04:33:45.931Z,74.50
2023-03-19T04:36:14.745Z,74.60
2023-03-19T04:38:43.880Z,74.70
2023-03-19T04:41:12.020Z,74.70
2023-03-19T04:43:46.680Z,74.80
2023-03-19T04:46:17.446Z,74.90
2023-03-19T04:48:45.801Z,75.00
2023-03-19T04:51:15.059Z,75.00
2023-03-19T04:53:43.770Z,75.00
2023-03-19T04:56:13.816Z,75.00
2023-03-19T04:58:42.551Z,75.00
2023-03-19T05:01:11.119Z,74.90
2023-03-19T05:04:00.688Z,74.80
2023-03-19T05:06:29.850Z,74.80
2023-03-19T05:08:58.212Z,74.80
2023-03-19T05:11:27.170Z,74.80
2023-03-19T05:14:07.138Z,74.80
2023-03-19T05:17:01.762Z,74.90
2023-03-19T05:19:45.156Z,75.00
2023-03-19T05:22:13.526Z,75.00
2023-03-19T05:24:42.606Z,75.00
2023-03-19T05:27:10.847Z,75.20
2023-03-19T05:30:05.834Z,75.10
2023-03-19T05:33:00.856Z,75.10
2023-03-19T05:35:38.075Z,75.20
2023-03-19T05:38:11.938Z,75.20
2023-03-19T05:40:42.978Z,75.30
2023-03-19T05:43:23.840Z,75.40
2023-03-19T05:45:54.676Z,75.40
2023-03-19T05:48:28.240Z,75.40
2023-03-19T05:50:59.399Z,75.50
2023-03-19T05:53:32.311Z,75.50
2023-03-19T05:56:19.035Z,75.50
2023-03-19T05:59:00.771Z,75.60
2023-03-19T06:01:36.955Z,75.60
2023-03-19T06:04:06.270Z,75.50
2023-03-19T06:06:36.926Z,75.50
2023-03-19T06:09:05.227Z,75.60
2023-03-19T06:11:41.927Z,75.50
2023-03-19T06:14:29.887Z,75.60
2023-03-19T06:17:33.413Z,75.60
2023-03-19T06:20:06.230Z,75.50
2023-03-19T06:22:36.815Z,75.50
2023-03-19T06:25:06.904Z,75.30
2023-03-19T06:27:38.085Z,75.30
2023-03-19T06:30:23.996Z,75.20
2023-03-19T06:32:52.508Z,75.00
2023-03-19T06:35:21.100Z,75.00
2023-03-19T06:37:52.446Z,74.90
2023-03-19T06:40:20.801Z,74.80
2023-03-19T06:42:48.825Z,74.70
2023-03-19T06:45:19.337Z,74.60
2023-03-19T06:47:48.101Z,74.50
2023-03-19T06:50:16.438Z,74.20
2023-03-19T06:52:45.113Z,74.00
2023-03-19T06:55:15.136Z,73.90
2023-03-19T06:57:43.997Z,73.90
2023-03-19T07:00:13.339Z,73.70
2023-03-19T07:02:41.910Z,73.40
2023-03-19T07:05:10.158Z,73.10
2023-03-19T07:07:38.843Z,73.00
2023-03-19T07:10:07.560Z,72.70
2023-03-19T07:12:38.048Z,72.70
2023-03-19T07:15:07.729Z,72.60
2023-03-19T07:17:36.270Z,72.10
2023-03-19T07:20:04.838Z,72.00
2023-03-19T07:22:33.598Z,71.10
2023-03-19T07:25:01.930Z,70.80
2023-03-19T07:27:30.469Z,70.90
2023-03-19T07:30:00.171Z,70.60
2023-03-19T07:32:28.448Z,70.70
2023-03-19T07:34:57.021Z,70.70
2023-03-19T07:37:25.621Z,70.10
2023-03-19T07:39:53.764Z,69.70
2023-03-19T07:42:26.046Z,69.80
2023-03-19T07:44:54.168Z,69.20
2023-03-19T07:47:28.994Z,68.80
2023-03-19T07:49:57.844Z,68.90
2023-03-19T07:52:26.634Z,69.00
2023-03-19T07:54:55.089Z,69.00
2023-03-19T07:57:25.870Z,69.00
2023-03-19T07:59:54.930Z,69.20
2023-03-19T08:02:24.550Z,69.00
2023-03-19T08:04:52.888Z,68.60
2023-03-19T08:07:21.886Z,68.10
2023-03-19T08:09:50.179Z,68.70
2023-03-19T08:12:18.553Z,69.00
2023-03-19T08:14:47.445Z,69.20
2023-03-19T08:17:17.144Z,69.30
2023-03-19T08:19:46.955Z,68.80
2023-03-19T08:22:17.258Z,68.00
2023-03-19T08:24:46.678Z,66.60
2023-03-19T08:27:14.837Z,65.10
2023-03-19T08:29:43.188Z,63.80
2023-03-19T08:32:11.460Z,62.80
2023-03-19T08:34:40.135Z,61.80
2023-03-19T08:37:10.232Z,59.80
2023-03-19T08:39:39.380Z,60.30
2023-03-19T08:42:07.919Z,61.10
2023-03-19T08:44:36.369Z,60.80
2023-03-19T08:47:04.895Z,60.70
2023-03-19T08:49:33.015Z,57.60
2023-03-19T08:52:01.491Z,57.30
2023-03-19T08:54:32.076Z,57.90
2023-03-19T08:57:01.030Z,57.30
2023-03-19T08:59:30.956Z,58.60
2023-03-19T09:02:00.273Z,59.90
2023-03-19T09:04:29.012Z,61.60
2023-03-19T09:06:57.533Z,63.10
2023-03-19T09:09:26.261Z,63.60
2023-03-19T09:11:56.425Z,63.80
2023-03-19T09:14:24.476Z,63.00
2023-03-19T09:16:53.920Z,62.20
2023-03-19T09:19:22.361Z,61.40
2023-03-19T09:21:51.990Z,59.30
2023-03-19T09:24:21.430Z,57.10
2023-03-19T09:26:51.122Z,54.00
2023-03-19T09:29:22.282Z,50.90
2023-03-19T09:31:51.240Z,48.80
2023-03-19T09:34:19.777Z,47.20
2023-03-19T09:36:48.374Z,46.40
2023-03-19T09:39:17.359Z,45.60
2023-03-19T09:41:51.474Z,44.80
2023-03-19T09:44:24.330Z,44.30
2023-03-19T09:46:55.083Z,44.00
2023-03-19T09:49:27.432Z,43.80
2023-03-19T09:51:57.994Z,43.80
2023-03-19T09:54:31.991Z,45.50
2023-03-19T09:57:01.547Z,48.20
2023-03-19T09:59:32.243Z,49.90
2023-03-19T10:02:10.199Z,52.00
2023-03-19T10:04:43.664Z,53.40
2023-03-19T10:07:26.048Z,55.00
2023-03-19T10:10:00.396Z,56.70
2023-03-19T10:12:37.578Z,57.20
2023-03-19T10:15:16.402Z,57.40
2023-03-19T10:17:47.910Z,56.60
2023-03-19T10:20:18.470Z,57.80
2023-03-19T10:22:48.894Z,57.60
2023-03-19T10:25:21.159Z,58.10
2023-03-19T10:27:52.230Z,57.80
2023-03-19T10:30:22.368Z,57.70
2023-03-19T10:32:53.310Z,57.10
2023-03-19T10:35:23.590Z,56.60
2023-03-19T10:37:54.006Z,56.20
2023-03-19T10:40:26.290Z,56.70
2023-03-19T10:43:02.469Z,57.10
2023-03-19T10:45:33.524Z,56.40
2023-03-19T10:48:04.889Z,55.90
2023-03-19T10:50:36.014Z,54.10
2023-03-19T10:53:06.814Z,52.70
2023-03-19T10:55:35.720Z,52.70
2023-03-19T10:58:05.575Z,52.60
2023-03-19T11:00:36.098Z,52.40
2023-03-19T11:03:05.674Z,51.40
2023-03-19T11:05:34.872Z,51.90
2023-03-19T11:08:04.377Z,52.10
2023-03-19T11:10:34.575Z,52.00
2023-03-19T11:13:05.635Z,53.40
2023-03-19T11:15:37.543Z,52.90
2023-03-19T11:18:09.456Z,51.10
2023-03-19T11:20:38.712Z,50.80
2023-03-19T11:23:12.421Z,50.70
2023-03-19T11:25:42.457Z,51.10
2023-03-19T11:28:11.658Z,51.80
2023-03-19T11:30:44.700Z,51.60
2023-03-19T11:33:17.541Z,51.00
2023-03-19T11:35:48.617Z,50.10
2023-03-19T11:38:19.910Z,49.20
2023-03-19T11:40:51.281Z,47.20
2023-03-19T11:43:39.411Z,49.60
2023-03-19T11:46:14.353Z,50.30
2023-03-19T11:48:52.399Z,50.20
2023-03-19T11:51:25.179Z,50.40
2023-03-19T11:54:01.897Z,48.90
2023-03-19T11:56:34.555Z,48.10
2023-03-19T11:59:13.251Z,48.60
2023-03-19T12:01:51.476Z,49.40
2023-03-19T12:04:37.622Z,48.80
2023-03-19T12:07:10.874Z,49.40
2023-03-19T12:09:44.265Z,48.80
2023-03-19T12:12:18.471Z,50.00
2023-03-19T12:14:55.046Z,50.30
2023-03-19T12:17:30.875Z,49.20
2023-03-19T12:20:14.955Z,49.80
2023-03-19T12:22:52.940Z,49.10
2023-03-19T12:25:26.786Z,49.40
2023-03-19T12:27:56.498Z,48.90
2023-03-19T12:30:30.484Z,49.70
2023-03-19T12:33:10.234Z,48.80
2023-03-19T12:35:42.311Z,50.50
2023-03-19T12:38:12.637Z,50.60
2023-03-19T12:40:44.083Z,53.60
2023-03-19T12:43:17.966Z,54.80
2023-03-19T12:45:49.408Z,53.40
2023-03-19T12:48:22.947Z,53.30
2023-03-19T12:50:52.635Z,53.00
2023-03-19T12:53:28.444Z,53.20
2023-03-19T12:55:59.003Z,53.60
2023-03-19T12:58:32.491Z,54.80
2023-03-19T13:01:07.596Z,56.40
2023-03-19T13:03:40.330Z,59.10
2023-03-19T13:06:10.520Z,59.00
2023-03-19T13:08:42.152Z,59.70
2023-03-19T13:11:14.050Z,59.40
2023-03-19T13:13:44.260Z,58.90
2023-03-19T13:16:20.855Z,58.60
2023-03-19T13:18:53.064Z,58.60
2023-03-19T13:21:24.952Z,58.10
2023-03-19T13:24:02.980Z,59.10
2023-03-19T13:26:32.753Z,60.80
2023-03-19T13:29:02.999Z,60.50
2023-03-19T13:31:35.256Z,61.50
2023-03-19T13:34:07.202Z,62.20
2023-03-19T13:36:39.542Z,62.80
2023-03-19T13:39:14.551Z,63.50
2023-03-19T13:41:52.601Z,65.10
2023-03-19T13:44:28.684Z,65.40
2023-03-19T13:46:58.139Z,65.50
2023-03-19T13:49:43.448Z,66.20
2023-03-19T13:52:26.545Z,69.10
2023-03-19T13:54:58.256Z,72.20
2023-03-19T13:57:35.644Z,72.80
2023-03-19T14:00:22.965Z,73.50
2023-03-19T14:02:54.600Z,73.70
2023-03-19T14:05:22.866Z,73.40
2023-03-19T14:07:56.107Z,74.60
2023-03-19T14:10:28.149Z,74.90
2023-03-19T14:13:04.038Z,75.40
2023-03-19T14:15:32.431Z,74.30
2023-03-19T14:18:02.599Z,75.00
2023-03-19T14:20:40.747Z,76.20
2023-03-19T14:23:39.601Z,76.50
2023-03-19T14:26:16.542Z,76.20
2023-03-19T14:28:50.755Z,76.70
2023-03-19T14:31:24.092Z,77.00
2023-03-19T14:33:55.643Z,76.90
2023-03-19T14:36:26.389Z,77.00
2023-03-19T14:38:57.813Z,76.90
2023-03-19T14:41:29.929Z,77.10
2023-03-19T14:44:15.683Z,77.50
2023-03-19T14:46:52.912Z,77.40
2023-03-19T14:49:44.068Z,77.70
2023-03-19T14:52:15.621Z,77.20
2023-03-19T14:54:46.455Z,77.10
2023-03-19T14:57:19.995Z,77.00
2023-03-19T14:59:49.882Z,77.20
2023-03-19T15:02:24.059Z,77.30
2023-03-19T15:04:53.050Z,77.60
2023-03-19T15:07:23.345Z,76.30
2023-03-19T15:09:55.972Z,75.70
2023-03-19T15:12:34.057Z,74.70
2023-03-19T15:15:14.474Z,74.70
2023-03-19T15:17:47.176Z,74.10
2023-03-19T15:20:23.019Z,72.40
2023-03-19T15:22:55.246Z,72.20
2023-03-19T15:25:25.120Z,71.30
2023-03-19T15:28:08.624Z,71.90
2023-03-19T15:30:52.284Z,69.90
2023-03-19T15:33:38.962Z,67.20
2023-03-19T15:36:10.000Z,66.60
2023-03-19T15:38:40.648Z,64.70
2023-03-19T15:41:09.498Z,63.50
2023-03-19T15:43:40.540Z,61.30
2023-03-19T15:46:09.201Z,61.90
2023-03-19T15:48:38.963Z,60.70
2023-03-19T15:51:08.840Z,59.80
2023-03-19T15:53:37.642Z,59.00
2023-03-19T15:56:06.488Z,58.30
2023-03-19T15:58:41.107Z,61.00
2023-03-19T16:01:10.623Z,59.70
2023-03-19T16:03:41.423Z,57.80
2023-03-19T16:06:14.354Z,59.00
2023-03-19T16:08:47.665Z,59.30
2023-03-19T16:11:16.804Z,60.30
2023-03-19T16:13:57.113Z,61.60
2023-03-19T16:16:26.533Z,62.10
2023-03-19T16:18:55.748Z,63.00
2023-03-19T16:21:26.164Z,64.00
2023-03-19T16:23:57.327Z,65.00
2023-03-19T16:26:26.343Z,65.80
2023-03-19T16:29:18.763Z,65.70
2023-03-19T16:31:51.929Z,66.40
2023-03-19T16:34:38.326Z,66.60
2023-03-19T16:37:21.961Z,67.40
2023-03-19T16:39:55.406Z,67.60
2023-03-19T16:42:31.308Z,68.80
2023-03-19T16:45:17.977Z,69.80
2023-03-19T16:47:47.221Z,70.90
2023-03-19T16:50:16.168Z,71.40
2023-03-19T16:52:45.423Z,71.60
2023-03-19T16:55:20.141Z,71.60
2023-03-19T16:57:51.726Z,71.90
2023-03-19T17:00:23.424Z,72.10
2023-03-19T17:02:52.316Z,72.30
2023-03-19T17:05:21.049Z,72.30
2023-03-19T17:07:49.275Z,72.40
2023-03-19T17:10:18.128Z,72.60
2023-03-19T17:12:47.957Z,72.80
2023-03-19T17:15:19.339Z,73.00
2023-03-19T17:17:49.769Z,73.40
2023-03-19T17:20:22.535Z,73.80
2023-03-19T17:22:52.905Z,74.10
2023-03-19T17:25:21.752Z,74.50
2023-03-19T17:27:50.131Z,74.80
2023-03-19T17:30:19.255Z,75.00
2023-03-19T17:35:45.860Z,75.40
2023-03-19T17:38:24.586Z,75.60
2023-03-19T17:40:55.125Z,75.80
2023-03-19T17:43:23.208Z,76.00
2023-03-19T17:45:54.156Z,76.30
2023-03-19T17:51:10.605Z,76.50
2023-03-19T17:53:43.428Z,76.70
2023-03-19T17:59:12.582Z,77.40
2023-03-19T18:01:45.714Z,77.60
2023-03-19T18:04:17.767Z,77.70
2023-03-19T18:06:50.610Z,78.00
2023-03-19T18:09:21.016Z,78.30
2023-03-19T18:11:49.191Z,78.50
2023-03-19T18:14:18.811Z,78.40
2023-03-19T18:16:50.569Z,78.40
2023-03-19T18:19:27.108Z,78.50
2023-03-19T18:21:57.924Z,78.40
2023-03-19T18:24:28.018Z,78.30
2023-03-19T18:26:59.244Z,78.40
2023-03-19T18:29:27.505Z,78.50
2023-03-19T18:32:31.978Z,78.40
2023-03-19T18:35:13.148Z,78.50
2023-03-19T18:37:43.307Z,78.60
2023-03-19T18:40:14.587Z,78.40
2023-03-19T18:42:44.101Z,78.50
2023-03-19T18:45:25.449Z,78.70
2023-03-19T18:47:55.153Z,78.80
2023-03-19T18:50:33.672Z,78.70
2023-03-19T18:53:04.954Z,78.60
2023-03-19T18:55:34.483Z,78.80
2023-03-19T18:58:03.210Z,78.90
2023-03-19T19:00:37.875Z,78.80
2023-03-19T19:03:09.628Z,78.80
2023-03-19T19:05:39.246Z,78.50
2023-03-19T19:08:10.112Z,78.40
2023-03-19T19:10:54.384Z,78.20
2023-03-19T19:13:27.370Z,77.90
2023-03-19T19:15:58.970Z,77.70
2023-03-19T19:18:33.430Z,77.90
2023-03-19T19:21:05.851Z,78.10
2023-03-19T19:23:34.591Z,78.40
2023-03-19T19:26:02.629Z,78.60
2023-03-19T19:28:34.791Z,78.90
2023-03-19T19:31:07.972Z,79.20
2023-03-19T19:33:38.668Z,79.20
2023-03-19T19:36:23.006Z,79.40
2023-03-19T19:39:02.504Z,79.50
2023-03-19T19:41:32.167Z,79.70
2023-03-19T19:44:03.484Z,79.80
2023-03-19T19:46:46.517Z,79.90
2023-03-19T19:49:16.503Z,79.90
2023-03-19T19:51:53.772Z,80.00
2023-03-19T19:54:48.896Z,79.90
2023-03-19T19:57:28.497Z,80.10
2023-03-19T20:00:00.641Z,80.20
2023-03-19T20:02:35.409Z,80.30
2023-03-19T20:11:19.360Z,80.50
2023-03-19T20:16:54.068Z,80.60
2023-03-19T20:19:30.141Z,80.50
2023-03-19T20:22:05.311Z,80.40
2023-03-19T20:24:36.007Z,80.40
2023-03-19T20:27:15.489Z,80.50
2023-03-19T20:29:52.202Z,80.60
2023-03-19T20:32:40.974Z,80.70
2023-03-19T20:35:16.468Z,80.80
2023-03-19T20:37:54.413Z,80.80
2023-03-19T20:43:23.569Z,80.70
2023-03-19T20:46:18.806Z,80.80
2023-03-19T20:48:51.751Z,80.80
2023-03-19T20:51:24.819Z,80.80
2023-03-19T20:54:14.887Z,80.70
2023-03-19T20:56:47.647Z,80.60
2023-03-19T20:59:34.027Z,80.50
2023-03-19T21:02:10.606Z,80.50
2023-03-19T21:08:16.630Z,80.50
2023-03-19T21:10:50.748Z,80.70
2023-03-19T21:13:28.719Z,80.80
2023-03-19T21:16:02.931Z,80.70
2023-03-19T21:19:02.180Z,80.80
2023-03-19T21:21:42.302Z,80.80
2023-03-19T21:24:13.723Z,80.90
2023-03-19T21:26:49.540Z,81.00
2023-03-19T21:29:21.284Z,81.10
2023-03-19T21:34:54.037Z,81.00
2023-03-19T21:37:24.249Z,81.10
2023-03-19T21:39:52.835Z,81.20
2023-03-19T21:42:22.798Z,81.20
2023-03-19T21:44:55.297Z,81.20
2023-03-19T21:47:25.889Z,81.20
2023-03-19T21:49:55.009Z,81.20
2023-03-19T21:52:24.937Z,81.20
2023-03-19T21:54:54.089Z,81.00
2023-03-19T21:57:22.176Z,80.90
2023-03-19T21:59:50.806Z,80.70
2023-03-19T22:02:34.159Z,80.70
2023-03-19T22:05:02.378Z,80.50
2023-03-19T22:07:34.741Z,80.40
2023-03-19T22:10:03.791Z,80.60
2023-03-19T22:12:32.705Z,80.60
2023-03-19T22:15:01.397Z,80.70
2023-03-19T22:17:31.256Z,80.70
2023-03-19T22:19:59.696Z,80.70
2023-03-19T22:22:27.943Z,80.70
2023-03-19T22:25:00.635Z,80.70
2023-03-19T22:27:30.882Z,80.70
2023-03-19T22:30:01.894Z,80.70
2023-03-19T22:32:32.416Z,80.60
2023-03-19T22:35:08.800Z,80.60
2023-03-19T22:37:37.765Z,80.70
2023-03-19T22:40:26.891Z,80.60
2023-03-19T22:42:56.785Z,80.60
2023-03-19T22:45:29.235Z,80.60
2023-03-19T22:48:12.978Z,80.60
2023-03-19T22:50:56.875Z,80.50
2023-03-19T22:53:36.731Z,80.50
2023-03-19T22:56:06.150Z,80.50
2023-03-19T22:58:36.909Z,80.50
2023-03-19T23:01:20.705Z,80.50
2023-03-19T23:03:51.749Z,80.50
2023-03-19T23:06:29.697Z,80.50
2023-03-19T23:08:59.515Z,80.40
2023-03-19T23:11:29.272Z,80.40
2023-03-19T23:14:00.129Z,80.30
2023-03-19T23:16:28.795Z,80.30
2023-03-19T23:18:57.127Z,80.20
2023-03-19T23:21:26.606Z,80.20
2023-03-19T23:23:55.005Z,80.10
2023-03-19T23:26:28.438Z,80.10
2023-03-19T23:29:22.990Z,80.20
2023-03-19T23:31:54.975Z,80.10
2023-03-19T23:34:26.033Z,80.20
2023-03-19T23:37:08.380Z,80.30
2023-03-19T23:39:39.684Z,80.30
2023-03-19T23:42:20.379Z,80.30
2023-03-19T23:44:51.775Z,80.30
2023-03-19T23:47:27.649Z,80.40
2023-03-19T23:50:13.404Z,80.40
2023-03-19T23:53:07.130Z,80.40
2023-03-19T23:55:37.265Z,80.40
2023-03-19T23:58:05.533Z,80.30
